This is the latest recevied weather packets stored in our database for station/object WC4PEM-7. If no packets are shown the sender has not sent any weather packets the latest 1 day(s).
| Time | Temp. | Humidity | Pressure | Rain* | Wind** | Luminosity | Snow |
|---|---|---|---|---|---|---|---|
| 1778032710 | 23.89° C | 66% | 1016.2 hPa | 0 mm | - | - | - |
| 1778032410 | 23.89° C | 66% | 1016.1 hPa | 0 mm | - | - | - |
| 1778032110 | 23.89° C | 65% | 1016.1 hPa | 0 mm | - | - | - |
| 1778031791 | 23.89° C | 66% | 1016 hPa | 0 mm | - | - | - |
| 1778031510 | 23.89° C | 66% | 1016 hPa | 0 mm | - | - | - |
| 1778031304 | 24.44° C | 66% | 1015.8 hPa | 0 mm | - | - | - |
| 1778031210 | 24.44° C | 66% | 1015.8 hPa | 0 mm | - | - | - |
| 1778030892 | 24.44° C | 66% | 1015.7 hPa | 0 mm | - | - | - |
| 1778029851 | 24.44° C | 65% | 1015.1 hPa | 0 mm | - | - | - |
| 1778029110 | 25° C | 64% | 1014.9 hPa | 0 mm | - | - | - |
| 1778028899 | 25° C | 64% | 1014.8 hPa | 0 mm | - | - | - |
| 1778027768 | 25.56° C | 64% | 1014.7 hPa | 0 mm | - | - | - |
| 1778027611 | 25.56° C | 64% | 1014.7 hPa | 0 mm | - | - | - |
| 1778027311 | 25.56° C | 63% | 1014.6 hPa | 0 mm | - | - | - |
| 1778027038 | 26.67° C | 61% | 1014.2 hPa | 0 mm | - | - | - |
| 1778027011 | 26.11° C | 62% | 1014.4 hPa | 0 mm | - | - | - |
| 1778026711 | 26.67° C | 61% | 1014.2 hPa | 0 mm | - | - | - |
| 1778026411 | 26.67° C | 60% | 1014.3 hPa | 0 mm | - | - | - |
| 1778026111 | 26.67° C | 58% | 1014.1 hPa | 0 mm | - | - | - |
| 1778025811 | 27.22° C | 58% | 1014 hPa | 0 mm | - | - | - |
| 1778025511 | 27.22° C | 58% | 1013.9 hPa | 0 mm | - | - | - |
| 1778025211 | 27.22° C | 57% | 1013.9 hPa | 0 mm | - | - | - |
| 1778024911 | 27.78° C | 57% | 1013.8 hPa | 0 mm | - | - | - |
| 1778024731 | 27.78° C | 56% | 1013.6 hPa | 0 mm | - | - | - |
| 1778024611 | 27.78° C | 56% | 1013.6 hPa | 0 mm | - | - | - |
* Rain latest hour (hover to see other rain measurements)
** Current wind speed in m/s (hover to see current wind gust speed)